Time;durP1;ratioP1;P1;durP2;ratioP2;P2;SDS_P1;SDS_P2;PMS_P1;PMS_P2;Temp;Humidity;BMP_temperature;BMP_pressure;BME280_temperature;BME280_humidity;BME280_pressure;Samples;Min_cycle;Max_cycle;Signal;HPM_P1;HPM_P2
2022/10/07 00:00:56;;;;;;;13.23;6.97;;;;;;;11.00;70.02;101175.16;5086604;28;20043;-29
2022/10/07 00:03:23;;;;;;;12.05;6.28;;;;;;;10.72;70.50;101151.94;5087825;28;20031;-26
2022/10/07 00:06:02;;;;;;;10.82;7.00;;;;;;;10.72;71.75;101170.63;5089994;28;20085;-27
2022/10/07 00:08:28;;;;;;;12.35;6.80;;;;;;;10.75;71.82;101175.59;5090249;28;20483;-28
2022/10/07 00:10:54;;;;;;;22.80;15.25;;;;;;;10.90;71.12;101174.66;5090251;28;20039;-26
2022/10/07 00:13:19;;;;;;;64.35;32.30;;;;;;;10.76;71.02;101161.22;5090227;28;20812;-27
2022/10/07 00:15:45;;;;;;;24.58;12.30;;;;;;;10.86;70.93;101160.88;5089704;28;20369;-29
2022/10/07 00:18:10;;;;;;;12.65;7.00;;;;;;;10.60;72.67;101165.00;5088912;28;20028;-29
2022/10/07 00:20:39;;;;;;;8.57;5.30;;;;;;;10.53;72.60;101168.63;5089825;28;20102;-31
2022/10/07 00:23:06;;;;;;;8.23;4.40;;;;;;;10.72;71.44;101165.28;5090372;28;20028;-27
2022/10/07 00:25:36;;;;;;;9.90;5.90;;;;;;;10.77;71.79;101165.53;5089604;28;20035;-26
2022/10/07 00:28:02;;;;;;;38.50;15.10;;;;;;;10.81;71.40;101156.13;5071607;28;20507;-28
2022/10/07 00:30:28;;;;;;;12.52;6.00;;;;;;;10.60;71.92;101159.66;5089504;28;20024;-26
2022/10/07 00:32:53;;;;;;;8.43;4.97;;;;;;;10.48;72.07;101165.69;5089727;28;20113;-26
2022/10/07 00:35:19;;;;;;;8.05;4.80;;;;;;;10.63;71.06;101163.78;5088036;28;20477;-26
2022/10/07 00:37:44;;;;;;;10.05;5.13;;;;;;;10.70;72.14;101158.50;5089453;28;20087;-30
2022/10/07 00:40:12;;;;;;;9.18;4.50;;;;;;;10.39;72.30;101152.47;5089602;28;20453;-27
2022/10/07 00:42:39;;;;;;;13.50;5.43;;;;;;;10.26;73.87;101155.81;5089429;28;20404;-27
2022/10/07 00:45:12;;;;;;;13.35;4.68;;;;;;;10.02;74.39;101156.19;5088097;28;20036;-26
2022/10/07 00:47:39;;;;;;;11.55;4.72;;;;;;;10.01;74.08;101152.69;5089163;28;20466;-27
2022/10/07 00:50:26;;;;;;;8.98;5.15;;;;;;;9.91;74.12;101157.50;5089449;28;20511;-26
2022/10/07 00:52:56;;;;;;;7.18;4.63;;;;;;;9.81;74.59;101148.97;5089709;28;20028;-29
2022/10/07 00:55:25;;;;;;;7.28;4.03;;;;;;;9.58;74.92;101120.66;5089039;28;20028;-27
2022/10/07 00:57:54;;;;;;;10.55;4.90;;;;;;;10.09;72.79;101138.41;5071003;28;20045;-27
2022/10/07 01:00:23;;;;;;;9.13;4.78;;;;;;;10.26;72.49;101147.00;5089403;28;20023;-26
2022/10/07 01:02:49;;;;;;;8.98;5.13;;;;;;;10.21;72.42;101138.72;5089280;28;20036;-28
2022/10/07 01:05:15;;;;;;;9.82;4.97;;;;;;;10.22;72.45;101141.22;5089394;28;20111;-26
2022/10/07 01:07:41;;;;;;;14.90;6.13;;;;;;;10.23;72.83;101136.69;5088747;28;20567;-31
2022/10/07 01:10:08;;;;;;;21.95;7.47;;;;;;;10.20;73.11;101131.78;5070729;28;20032;-29
2022/10/07 01:12:48;;;;;;;28.02;10.13;;;;;;;9.94;74.21;101143.78;5088957;28;20028;-29
2022/10/07 01:15:29;;;;;;;26.55;8.15;;;;;;;9.67;75.46;101133.84;5088477;28;20028;-28
2022/10/07 01:18:07;;;;;;;20.63;7.05;;;;;;;9.49;75.39;101105.78;5088750;28;20065;-28
2022/10/07 01:20:51;;;;;;;;;;;;;;;9.61;74.66;101127.44;5089628;28;20059;-32
2022/10/07 01:23:30;;;;;;;9.90;4.65;;;;;;;9.50;75.95;101131.41;5070730;28;19989;-27
2022/10/07 01:26:21;;;;;;;8.38;4.53;;;;;;;9.06;77.66;101134.88;5088863;28;20028;-27
2022/10/07 01:28:56;;;;;;;9.63;4.97;;;;;;;9.07;78.46;101123.22;5088482;28;20085;-26
2022/10/07 01:31:29;;;;;;;11.20;4.63;;;;;;;9.51;76.12;101114.41;5070981;28;20032;-27
2022/10/07 01:33:55;;;;;;;7.72;4.50;;;;;;;9.68;75.30;101107.00;5070287;28;20032;-29
2022/10/07 01:36:23;;;;;;;6.80;4.20;;;;;;;9.44;76.27;101105.53;5088355;28;20032;-28
2022/10/07 01:39:01;;;;;;;8.18;4.30;;;;;;;9.74;75.79;101116.09;5088627;28;20023;-27
2022/10/07 01:41:27;;;;;;;7.57;4.60;;;;;;;9.79;74.93;101127.03;5088698;28;20054;-27
2022/10/07 01:43:55;;;;;;;8.40;4.40;;;;;;;9.80;74.98;101131.34;5086869;28;20058;-30
2022/10/07 01:46:26;;;;;;;9.13;4.93;;;;;;;9.61;75.15;101117.59;5088488;28;20032;-28
2022/10/07 01:48:52;;;;;;;12.35;5.95;;;;;;;9.80;74.13;101102.03;5070015;28;20089;-26
2022/10/07 01:51:27;;;;;;;8.23;5.20;;;;;;;10.13;73.30;101128.19;5088136;28;20080;-31
2022/10/07 01:54:01;;;;;;;7.70;4.10;;;;;;;10.18;72.48;101136.47;5088352;28;20035;-26
2022/10/07 01:57:03;;;;;;;7.07;4.13;;;;;;;10.17;72.63;101134.81;5088311;28;20508;-25
2022/10/07 02:00:15;;;;;;;9.75;5.07;;;;;;;9.95;73.86;101123.28;5086694;28;20032;-28
2022/10/07 02:02:57;;;;;;;16.27;6.20;;;;;;;9.59;74.70;101135.59;5025032;28;20037;-27
2022/10/07 02:05:47;;;;;;;8.98;4.90;;;;;;;9.60;76.37;101137.25;5085005;28;20121;-27
2022/10/07 02:08:41;;;;;;;7.40;4.13;;;;;;;9.64;74.77;101137.69;5087668;28;20028;-26
2022/10/07 02:11:14;;;;;;;9.88;5.60;;;;;;;9.54;75.58;101132.69;5069070;28;20036;-27
2022/10/07 02:14:02;;;;;;;8.20;4.53;;;;;;;9.68;74.32;101111.53;5087611;28;20568;-27
2022/10/07 02:16:38;;;;;;;8.23;3.90;;;;;;;9.94;72.72;101135.78;5087697;28;20032;-29
2022/10/07 02:19:09;;;;;;;7.78;4.38;;;;;;;9.78;72.36;101123.53;5087667;28;20032;-29
2022/10/07 02:21:38;;;;;;;8.02;3.85;;;;;;;9.83;72.73;101139.78;5087510;28;20024;-26
2022/10/07 02:24:06;;;;;;;9.27;4.90;;;;;;;9.64;73.74;101138.53;5087891;28;20039;-32
2022/10/07 02:26:34;;;;;;;6.03;3.88;;;;;;;9.64;74.31;101127.03;5087517;28;20130;-26
2022/10/07 02:29:02;;;;;;;;;;;;;;;9.83;73.67;101146.97;5088190;28;20086;-27
2022/10/07 02:31:30;;;;;;;6.97;3.65;;;;;;;9.85;72.72;101132.44;5087768;28;20348;-29
2022/10/07 02:33:57;;;;;;;7.75;3.90;;;;;;;9.90;72.76;101142.50;5087787;28;20047;-26
2022/10/07 02:36:43;;;;;;;7.40;3.75;;;;;;;9.73;73.54;101143.75;5069003;28;20478;-25
2022/10/07 02:39:09;;;;;;;7.38;4.28;;;;;;;9.55;74.54;101144.97;5087514;28;20113;-28
2022/10/07 02:41:43;;;;;;;7.13;4.22;;;;;;;9.48;75.07;101138.75;5086930;28;20491;-27
2022/10/07 02:44:34;;;;;;;8.52;4.35;;;;;;;9.60;74.73;101142.59;5087703;28;20115;-28
2022/10/07 02:47:13;;;;;;;14.63;5.35;;;;;;;9.56;75.39;101148.44;5078267;28;20032;-28
2022/10/07 02:49:40;;;;;;;14.02;5.68;;;;;;;9.63;75.37;101152.03;5087183;28;20028;-27
2022/10/07 02:52:10;;;;;;;7.40;4.10;;;;;;;9.39;76.04;101134.53;5087199;28;20180;-26
2022/10/07 02:54:58;;;;;;;7.15;3.55;;;;;;;9.54;75.73;101148.66;5087205;28;20032;-27
2022/10/07 02:57:27;;;;;;;7.50;3.95;;;;;;;9.77;74.54;101145.03;5086426;28;20202;-29
2022/10/07 02:59:54;;;;;;;;;;;;;;;9.86;73.99;101149.22;5087220;28;20031;-28
2022/10/07 03:02:25;;;;;;;8.18;4.65;;;;;;;9.60;74.17;101126.63;5068532;28;19911;-28
2022/10/07 03:04:50;;;;;;;9.07;5.25;;;;;;;9.39;75.43;101132.69;5087386;28;20070;-28
2022/10/07 03:07:16;;;;;;;11.43;5.15;;;;;;;9.32;76.57;101149.59;5086982;28;20059;-28
2022/10/07 03:09:42;;;;;;;9.45;5.47;;;;;;;9.21;76.44;101127.75;5086830;28;20114;-27
2022/10/07 03:12:07;;;;;;;7.72;5.22;;;;;;;9.45;76.54;101150.56;5086889;28;20495;-26
2022/10/07 03:14:34;;;;;;;8.35;5.43;;;;;;;9.41;75.69;101130.66;5086917;28;20031;-26
2022/10/07 03:17:03;;;;;;;9.13;5.25;;;;;;;9.35;75.76;101147.38;5086611;28;20027;-27
2022/10/07 03:19:28;;;;;;;;;;;;;;;9.48;75.90;101157.38;5087405;28;20024;-27
2022/10/07 03:21:53;;;;;;;16.05;6.85;;;;;;;9.34;76.20;101134.25;5068641;28;19912;-27
2022/10/07 03:24:19;;;;;;;14.27;6.50;;;;;;;9.40;76.09;101144.16;5086924;28;20030;-27
2022/10/07 03:26:44;;;;;;;17.08;7.68;;;;;;;9.14;76.73;101145.44;5086976;28;20085;-30
2022/10/07 03:29:10;;;;;;;14.30;6.28;;;;;;;9.27;76.95;101133.34;5086615;28;20032;-28
2022/10/07 03:31:36;;;;;;;7.95;5.10;;;;;;;9.37;76.66;101141.88;5085067;28;20094;-32
2022/10/07 03:34:02;;;;;;;8.35;4.80;;;;;;;9.38;76.18;101132.88;5086856;28;20543;-27
2022/10/07 03:36:28;;;;;;;7.15;4.40;;;;;;;9.52;75.63;101136.50;5086853;28;20048;-30
2022/10/07 03:38:54;;;;;;;10.32;4.72;;;;;;;9.38;75.64;101125.72;5089417;28;20027;-28
2022/10/07 03:41:21;;;;;;;8.50;4.95;;;;;;;9.32;75.72;101141.59;5090836;28;20028;-27
2022/10/07 03:43:46;;;;;;;8.63;4.88;;;;;;;9.25;76.16;101139.69;5090502;28;20032;-28
2022/10/07 03:46:12;;;;;;;9.80;5.40;;;;;;;9.04;76.89;101131.59;5090383;28;20032;-28
2022/10/07 03:48:37;;;;;;;7.97;5.18;;;;;;;8.90;77.09;101119.09;5090753;28;20039;-28
2022/10/07 03:51:03;;;;;;;9.80;5.38;;;;;;;8.90;77.34;101135.06;5072298;28;20566;-27
2022/10/07 03:53:28;;;;;;;9.48;5.72;;;;;;;8.84;77.44;101126.78;5090823;28;20034;-28
2022/10/07 03:55:55;;;;;;;8.57;4.97;;;;;;;8.92;77.65;101143.69;5090271;28;20031;-28
2022/10/07 03:58:21;;;;;;;11.98;6.25;;;;;;;8.88;78.64;101142.38;5090510;28;20035;-30
2022/10/07 04:00:46;;;;;;;14.38;6.47;;;;;;;8.75;78.31;101122.56;5090047;28;20040;-32
2022/10/07 04:03:14;;;;;;;9.70;5.85;;;;;;;8.88;77.76;101134.41;5090493;28;20020;-27
2022/10/07 04:05:40;;;;;;;11.10;5.65;;;;;;;8.95;77.47;101136.16;5090249;28;20047;-27
2022/10/07 04:08:05;;;;;;;10.35;6.10;;;;;;;8.91;77.99;101147.34;5090441;28;20058;-29
2022/10/07 04:10:32;;;;;;;13.82;6.05;;;;;;;8.82;78.02;101134.09;5071980;28;20101;-27
2022/10/07 04:12:57;;;;;;;9.98;5.70;;;;;;;9.04;77.36;101143.03;5089955;28;20028;-27
2022/10/07 04:15:23;;;;;;;9.57;5.80;;;;;;;9.01;77.37;101129.28;5089983;28;20404;-28
2022/10/07 04:17:56;;;;;;;11.32;6.13;;;;;;;9.28;75.60;101132.34;5088373;28;20039;-28
2022/10/07 04:20:21;;;;;;;10.70;6.22;;;;;;;9.43;74.74;101157.91;5071850;28;20558;-27
2022/10/07 04:22:47;;;;;;;11.93;5.85;;;;;;;9.42;74.97;101152.81;5088470;28;20046;-28
2022/10/07 04:27:57;;;;;;;11.80;5.68;;;;;;;8.77;78.04;101152.47;5089630;28;20035;-30
2022/10/07 04:30:25;;;;;;;14.63;6.75;;;;;;;8.99;77.62;101160.56;5089753;28;20028;-26
2022/10/07 04:32:50;;;;;;;9.55;6.10;;;;;;;9.29;75.98;101171.25;5071297;28;20040;-29
2022/10/07 04:35:21;;;;;;;9.05;5.43;;;;;;;9.36;75.49;101175.66;5089564;28;20066;-26
2022/10/07 04:37:48;;;;;;;11.65;6.38;;;;;;;9.38;74.92;101170.16;5070675;28;20052;-27
2022/10/07 04:40:14;;;;;;;10.25;5.65;;;;;;;8.97;76.04;101151.94;5089736;28;20059;-31
2022/10/07 04:45:23;;;;;;;10.38;5.88;;;;;;;9.14;74.88;101163.25;5089658;28;20120;-26
2022/10/07 04:47:48;;;;;;;10.00;5.43;;;;;;;8.95;75.35;101127.34;5089269;28;20484;-31
2022/10/07 04:50:14;;;;;;;11.48;6.35;;;;;;;9.04;75.60;101147.53;5088365;28;20036;-27
2022/10/07 04:52:41;;;;;;;11.23;5.53;;;;;;;9.09;75.07;101145.16;5089206;28;20173;-31
2022/10/07 04:55:07;;;;;;;10.93;6.30;;;;;;;9.14;74.89;101153.44;5071054;28;20032;-28
2022/10/07 04:57:33;;;;;;;14.27;6.60;;;;;;;8.61;77.54;101147.28;5089010;28;20031;-29
2022/10/07 04:59:58;;;;;;;12.40;6.68;;;;;;;9.06;75.59;101164.16;5089383;28;20036;-27
2022/10/07 05:02:23;;;;;;;15.10;6.80;;;;;;;8.99;76.25;101155.22;5089266;28;20027;-29
2022/10/07 05:04:49;;;;;;;12.35;6.13;;;;;;;9.00;76.09;101170.19;5070532;28;20036;-26
2022/10/07 05:07:17;;;;;;;13.57;6.65;;;;;;;9.02;76.45;101176.16;5089110;28;20107;-26
2022/10/07 05:09:42;;;;;;;13.10;7.00;;;;;;;8.97;76.62;101174.06;5088694;28;20032;-30
2022/10/07 05:12:08;;;;;;;13.88;6.40;;;;;;;8.88;77.19;101164.50;5089163;28;20036;-29
2022/10/07 05:14:33;;;;;;;11.60;5.95;;;;;;;9.05;76.19;101160.69;5088938;28;20102;-27
2022/10/07 05:16:59;;;;;;;10.30;6.07;;;;;;;8.85;76.54;101165.69;5070678;28;20031;-28
2022/10/07 05:19:24;;;;;;;11.85;6.43;;;;;;;8.88;78.07;101200.91;5070603;28;20119;-27
2022/10/07 05:21:50;;;;;;;11.65;6.30;;;;;;;8.94;77.42;101163.75;5070325;28;20502;-27
2022/10/07 05:24:16;;;;;;;9.38;5.63;;;;;;;9.10;77.04;101184.06;5088911;28;20028;-27
2022/10/07 05:26:41;;;;;;;11.02;6.20;;;;;;;9.07;77.28;101181.75;5088712;28;20462;-30
2022/10/07 05:29:07;;;;;;;18.60;6.15;;;;;;;8.87;78.40;101167.31;5088832;28;20038;-26
2022/10/07 05:31:33;;;;;;;10.40;5.28;;;;;;;9.22;76.87;101192.44;5086837;28;20039;-28
2022/10/07 05:33:59;;;;;;;11.65;5.88;;;;;;;9.34;76.37;101196.31;5088676;28;20480;-29
2022/10/07 05:36:25;;;;;;;9.05;5.22;;;;;;;9.31;76.66;101155.91;5069857;28;20488;-27
2022/10/07 05:38:54;;;;;;;10.98;5.90;;;;;;;9.53;75.35;101184.28;5088585;28;20024;-26
2022/10/07 05:41:20;;;;;;;9.68;6.40;;;;;;;9.71;74.88;101185.75;5088446;28;20418;-26
2022/10/07 05:43:47;;;;;;;16.40;8.55;;;;;;;9.71;75.19;101199.06;5069798;28;20513;-27
2022/10/07 05:46:14;;;;;;;15.15;7.75;;;;;;;9.59;75.07;101172.88;5070044;28;20089;-26
2022/10/07 05:48:44;;;;;;;14.32;7.97;;;;;;;9.79;74.72;101180.31;5088377;28;20110;-27
2022/10/07 05:51:10;;;;;;;17.48;8.98;;;;;;;10.02;73.90;101198.81;5088157;28;20036;-27
2022/10/07 05:53:39;;;;;;;11.13;7.43;;;;;;;10.13;73.45;101194.84;5069692;28;20023;-27
2022/10/07 05:56:06;;;;;;;11.57;7.40;;;;;;;9.91;73.17;101175.31;5088295;28;20035;-29
2022/10/07 05:58:32;;;;;;;13.13;7.18;;;;;;;10.09;72.12;101201.56;5088200;28;20020;-28
2022/10/07 06:00:58;;;;;;;13.00;7.60;;;;;;;9.96;73.20;101189.72;5069511;28;20036;-29
2022/10/07 06:03:25;;;;;;;17.98;9.82;;;;;;;9.97;74.63;101191.41;5088106;28;20055;-27
2022/10/07 06:05:51;;;;;;;13.55;7.53;;;;;;;10.13;72.61;101200.97;5069397;28;20131;-28
2022/10/07 06:08:18;;;;;;;13.27;8.00;;;;;;;9.98;73.33;101185.03;5088146;28;20032;-26
2022/10/07 06:13:29;;;;;;;13.23;7.20;;;;;;;10.13;72.75;101189.50;5088233;28;20093;-28
2022/10/07 06:16:06;;;;;;;12.77;7.75;;;;;;;10.25;72.96;101193.31;5087686;28;20032;-27
2022/10/07 06:18:34;;;;;;;15.75;7.60;;;;;;;10.31;72.25;101207.78;5087472;28;20067;-25
2022/10/07 06:21:00;;;;;;;18.15;7.95;;;;;;;10.36;72.97;101194.69;5087862;28;20032;-30
2022/10/07 06:23:27;;;;;;;11.35;6.70;;;;;;;10.35;71.92;101198.38;5069425;28;20032;-29
2022/10/07 06:26:12;;;;;;;18.05;10.07;;;;;;;10.51;72.56;101208.00;5087217;28;20430;-26
2022/10/07 06:28:41;;;;;;;11.60;6.47;;;;;;;10.65;72.68;101202.59;5087188;28;20114;-27
2022/10/07 06:31:11;;;;;;;10.25;7.13;;;;;;;10.93;72.06;101206.28;5087763;28;20044;-28
2022/10/07 06:33:37;;;;;;;9.70;6.43;;;;;;;11.02;71.43;101178.44;5087410;28;20039;-26
2022/10/07 06:36:04;;;;;;;11.43;6.50;;;;;;;11.39;71.04;101195.13;5087197;28;20036;-26
2022/10/07 06:38:30;;;;;;;9.80;5.43;;;;;;;11.51;69.45;101192.72;5085955;28;20036;-28
2022/10/07 06:41:02;;;;;;;11.95;5.93;;;;;;;11.64;69.88;101211.50;5087134;28;20416;-26
2022/10/07 06:43:30;;;;;;;10.38;5.80;;;;;;;11.72;67.13;101197.16;5087664;28;20032;-28
2022/10/07 06:46:00;;;;;;;9.48;5.93;;;;;;;11.87;67.14;101224.56;5087746;28;20748;-27
2022/10/07 06:48:28;;;;;;;14.27;7.38;;;;;;;11.87;67.56;101211.22;5087359;28;20638;-27
2022/10/07 06:50:57;;;;;;;11.10;6.15;;;;;;;11.76;67.59;101196.53;5087241;28;20468;-27
2022/10/07 06:53:23;;;;;;;13.18;5.95;;;;;;;11.82;67.48;101201.09;5087170;28;20408;-27
2022/10/07 06:55:53;;;;;;;9.73;5.55;;;;;;;12.17;66.77;101224.28;5086605;28;20036;-27
2022/10/07 06:58:20;;;;;;;10.40;6.22;;;;;;;12.09;66.74;101205.75;5087256;28;20020;-26
2022/10/07 07:00:49;;;;;;;8.85;6.15;;;;;;;12.36;66.22;101215.50;5087126;28;20112;-28
2022/10/07 07:03:16;;;;;;;11.20;6.57;;;;;;;12.39;66.79;101216.94;5087430;28;20035;-26
2022/10/07 07:05:42;;;;;;;11.35;5.60;;;;;;;12.43;65.07;101202.97;5085401;28;20699;-27
2022/10/07 07:08:07;;;;;;;11.27;5.93;;;;;;;12.63;65.08;101221.72;5068565;28;20043;-27
2022/10/07 07:10:41;;;;;;;10.43;5.35;;;;;;;12.70;64.54;101192.28;5085512;28;20031;-27
2022/10/07 07:13:08;;;;;;;25.23;6.50;;;;;;;12.73;64.91;101191.88;5086670;28;20108;-27
2022/10/07 07:15:35;;;;;;;9.55;5.10;;;;;;;12.91;63.55;101212.66;5086930;28;20039;-26
2022/10/07 07:18:01;;;;;;;7.40;4.50;;;;;;;13.02;62.75;101198.66;5086732;28;20027;-28
2022/10/07 07:20:33;;;;;;;10.02;5.05;;;;;;;13.06;63.65;101193.72;5086965;28;20096;-28
2022/10/07 07:22:59;;;;;;;9.07;5.38;;;;;;;13.20;63.44;101214.09;5086535;28;20606;-26
2022/10/07 07:25:24;;;;;;;7.95;4.90;;;;;;;13.34;63.19;101208.75;5087229;28;20059;-28
2022/10/07 07:27:50;;;;;;;10.25;5.70;;;;;;;13.25;62.42;101205.44;5086427;28;20530;-31
2022/10/07 07:30:20;;;;;;;11.00;4.95;;;;;;;13.24;62.83;101204.63;5086985;28;20135;-31
2022/10/07 07:32:46;;;;;;;8.70;5.45;;;;;;;13.07;63.13;101198.03;5068581;28;20028;-27
2022/10/07 07:35:11;;;;;;;12.70;5.80;;;;;;;12.93;64.56;101191.03;5086986;28;20480;-32
2022/10/07 07:37:37;;;;;;;10.70;5.82;;;;;;;12.99;64.06;101179.50;5086406;28;20436;-32
2022/10/07 07:40:02;;;;;;;8.15;5.65;;;;;;;13.31;62.92;101195.78;5086962;28;20070;-28
2022/10/07 07:42:28;;;;;;;11.85;5.97;;;;;;;13.35;62.84;101175.56;5087053;28;20051;-29
2022/10/07 07:44:54;;;;;;;10.77;6.32;;;;;;;13.49;62.68;101190.59;5101819;28;20023;-28
2022/10/07 07:47:20;;;;;;;11.10;6.28;;;;;;;13.45;62.99;101178.66;5107353;28;20061;-27
2022/10/07 07:49:48;;;;;;;13.13;5.90;;;;;;;13.69;62.89;101190.53;5106663;28;20097;-28
2022/10/07 07:52:13;;;;;;;12.95;6.10;;;;;;;13.95;62.18;101178.84;5107317;28;20194;-27
2022/10/07 07:54:40;;;;;;;9.48;5.82;;;;;;;14.37;61.17;101191.84;5106793;28;20506;-28
2022/10/07 07:57:06;;;;;;;9.40;6.20;;;;;;;14.42;61.60;101168.66;5106981;28;20023;-29
2022/10/07 07:59:32;;;;;;;13.57;6.68;;;;;;;14.59;60.60;101185.09;5088275;28;20084;-28
2022/10/07 08:01:58;;;;;;;10.50;6.15;;;;;;;14.79;59.19;101184.97;5106845;28;20044;-27
2022/10/07 08:04:24;;;;;;;14.55;6.50;;;;;;;14.99;58.99;101178.56;5106653;28;20027;-28
2022/10/07 08:06:50;;;;;;;9.48;5.90;;;;;;;14.93;59.15;101164.16;5106786;28;20028;-29
2022/10/07 08:09:15;;;;;;;17.27;7.43;;;;;;;14.94;59.44;101167.69;5106824;28;20128;-29
2022/10/07 08:11:44;;;;;;;13.38;7.25;;;;;;;14.86;59.67;101155.34;5106580;28;20085;-30
2022/10/07 08:14:14;;;;;;;12.25;6.47;;;;;;;15.10;58.84;101168.94;5106944;28;20020;-27
2022/10/07 08:16:42;;;;;;;9.15;6.28;;;;;;;15.10;59.79;101151.00;5106867;28;20069;-27
2022/10/07 08:19:09;;;;;;;9.87;6.70;;;;;;;15.22;59.95;101168.03;5088240;28;20031;-29
2022/10/07 08:21:34;;;;;;;12.82;6.45;;;;;;;15.51;59.57;101176.41;5106550;28;20246;-28
2022/10/07 08:24:02;;;;;;;10.32;6.30;;;;;;;15.71;58.30;101169.94;5107905;28;20080;-28
2022/10/07 08:26:29;;;;;;;11.98;6.40;;;;;;;15.76;58.38;101168.25;5110170;28;20039;-28
2022/10/07 08:28:56;;;;;;;12.02;6.20;;;;;;;15.81;60.13;101154.13;5110254;28;20176;-28
2022/10/07 08:31:22;;;;;;;16.92;7.53;;;;;;;16.13;59.23;101167.38;5110417;28;20114;-33
2022/10/07 08:33:48;;;;;;;13.00;6.97;;;;;;;16.27;58.86;101163.44;5109677;28;20615;-27
2022/10/07 08:36:17;;;;;;;13.88;6.30;;;;;;;16.21;58.17;101143.63;5110173;28;20092;-26
2022/10/07 08:38:44;;;;;;;16.10;6.32;;;;;;;16.46;58.03;101159.59;5110106;28;20027;-27
2022/10/07 08:41:21;;;;;;;13.27;6.90;;;;;;;16.46;57.09;101135.38;5110092;28;20032;-28
2022/10/07 08:43:48;;;;;;;13.50;7.07;;;;;;;16.74;57.93;101150.03;5109679;28;20049;-28
2022/10/07 08:46:23;;;;;;;11.27;6.65;;;;;;;17.19;56.79;101143.28;5109807;28;20526;-27
2022/10/07 08:48:59;;;;;;;14.57;5.90;;;;;;;17.70;55.91;101138.94;5109877;28;20042;-30
2022/10/07 08:51:45;;;;;;;12.25;6.32;;;;;;;18.27;55.53;101143.53;5109971;28;20108;-28
2022/10/07 08:54:23;;;;;;;11.20;5.55;;;;;;;18.42;55.27;101121.34;5109527;28;20053;-27
2022/10/07 08:56:49;;;;;;;9.77;5.10;;;;;;;18.82;51.33;101129.31;5109747;28;20491;-28
2022/10/07 08:59:48;;;;;;;11.38;4.70;;;;;;;19.13;52.15;101134.31;5109715;28;20026;-29
2022/10/07 09:02:38;;;;;;;10.30;4.90;;;;;;;19.24;49.39;101123.38;5094338;28;20415;-29
2022/10/07 09:05:21;;;;;;;10.23;4.72;;;;;;;19.47;49.12;101124.19;5109525;28;20056;-30
2022/10/07 09:07:58;;;;;;;12.77;4.07;;;;;;;19.70;47.41;101123.13;5109612;28;20519;-28
2022/10/07 09:10:38;;;;;;;7.90;4.13;;;;;;;20.12;47.88;101113.53;5091164;28;20035;-29
2022/10/07 09:13:13;;;;;;;11.30;4.18;;;;;;;20.18;47.47;101110.63;5109533;28;20031;-31
2022/10/07 09:15:44;;;;;;;8.30;4.18;;;;;;;20.46;45.41;101093.25;5109382;28;20505;-29
2022/10/07 09:18:15;;;;;;;7.63;3.20;;;;;;;20.74;43.41;101099.44;5109495;28;20031;-29
2022/10/07 09:20:45;;;;;;;7.30;3.13;;;;;;;20.72;44.03;101096.16;5109445;28;20031;-29
2022/10/07 09:23:14;;;;;;;6.07;2.53;;;;;;;21.07;41.25;101086.59;5109397;28;20110;-28
2022/10/07 09:25:40;;;;;;;5.85;2.78;;;;;;;20.75;41.43;101073.94;5108567;28;20510;-28
2022/10/07 09:28:13;;;;;;;4.20;2.35;;;;;;;20.90;41.29;101066.97;5109137;28;20106;-32
2022/10/07 09:30:41;;;;;;;5.43;2.70;;;;;;;21.26;39.65;101082.31;5109045;28;20796;-28
2022/10/07 09:33:14;;;;;;;5.47;2.92;;;;;;;21.16;40.55;101079.56;5109128;28;20030;-27
2022/10/07 09:35:40;;;;;;;3.03;1.95;;;;;;;20.92;39.94;101078.38;5107810;28;20034;-33
2022/10/07 09:38:08;;;;;;;5.43;2.80;;;;;;;21.15;42.07;101060.88;5086530;28;20545;-28
2022/10/07 09:40:36;;;;;;;10.25;2.65;;;;;;;21.27;39.58;101064.97;5088540;28;20101;-28
2022/10/07 09:43:09;;;;;;;6.43;2.60;;;;;;;21.36;38.80;101035.41;5104331;28;20040;-27
2022/10/07 09:45:36;;;;;;;6.60;2.90;;;;;;;21.74;38.94;101057.81;5086669;28;20028;-30
2022/10/07 09:48:06;;;;;;;9.38;2.88;;;;;;;21.90;38.73;101052.38;5088189;28;20073;-30
2022/10/07 09:50:37;;;;;;;6.07;2.55;;;;;;;21.95;38.71;101034.19;5088282;28;20073;-27
2022/10/07 09:53:05;;;;;;;5.15;2.67;;;;;;;21.98;38.64;101047.22;5088342;28;20035;-27
2022/10/07 09:55:36;;;;;;;;;;;;;;;21.92;38.32;101039.34;5088578;28;20479;-29
2022/10/07 09:58:05;;;;;;;6.07;2.25;;;;;;;22.13;36.46;101038.25;5087949;28;19919;-28
2022/10/07 10:00:39;;;;;;;7.78;2.28;;;;;;;21.99;38.84;101010.81;5088138;28;20028;-28
2022/10/07 10:03:06;;;;;;;6.82;2.40;;;;;;;22.33;36.08;101017.59;5088013;28;20027;-31
2022/10/07 10:05:37;;;;;;;5.18;2.08;;;;;;;22.63;35.06;101030.31;5087504;28;20024;-28
2022/10/07 10:08:17;;;;;;;6.93;2.15;;;;;;;22.66;35.01;101008.03;5088017;28;20066;-28
2022/10/07 10:10:53;;;;;;;3.05;1.90;;;;;;;22.93;34.69;101023.16;5103596;28;20024;-28
2022/10/07 10:13:39;;;;;;;6.38;2.50;;;;;;;23.10;34.64;101014.69;5087967;28;20040;-30
2022/10/07 10:16:34;;;;;;;4.68;2.20;;;;;;;22.93;34.37;101006.84;5087907;28;20088;-28
2022/10/07 10:19:02;;;;;;;4.13;2.00;;;;;;;22.86;34.91;101002.53;5082715;28;20090;-28
2022/10/07 10:21:35;;;;;;;5.45;2.35;;;;;;;23.21;34.42;100998.03;5087628;28;20117;-29
2022/10/07 10:24:05;;;;;;;6.30;2.30;;;;;;;23.80;34.10;100999.03;5087445;28;20423;-29
2022/10/07 10:26:36;;;;;;;3.58;1.98;;;;;;;24.14;33.34;100998.16;5087904;28;20024;-27
2022/10/07 10:29:06;;;;;;;5.47;1.88;;;;;;;24.29;33.74;100994.47;5087763;28;20027;-28
2022/10/07 10:31:57;;;;;;;5.00;1.83;;;;;;;24.28;31.07;100976.50;5087185;28;20160;-27
2022/10/07 10:34:47;;;;;;;4.85;1.98;;;;;;;24.51;32.05;100985.00;5103121;28;20698;-29
2022/10/07 10:37:20;;;;;;;5.18;2.10;;;;;;;24.09;31.37;100983.75;5102835;28;20059;-31
2022/10/07 10:40:00;;;;;;;4.55;1.92;;;;;;;24.09;32.57;100942.88;5085472;28;20055;-28
2022/10/07 10:42:37;;;;;;;4.28;1.98;;;;;;;24.49;31.31;100932.66;5087331;28;20032;-28
2022/10/07 10:45:13;;;;;;;6.22;1.80;;;;;;;24.91;32.13;100950.13;5087185;28;20035;-27
2022/10/07 10:48:15;;;;;;;4.05;2.03;;;;;;;25.29;29.98;100947.44;5087075;28;20036;-28
2022/10/07 10:51:10;;;;;;;5.07;1.90;;;;;;;24.77;31.18;100941.88;5087199;28;20019;-28
2022/10/07 10:53:47;;;;;;;3.90;1.92;;;;;;;24.76;32.43;100942.97;5070323;28;20048;-29
2022/10/07 10:56:41;;;;;;;8.73;4.00;;;;;;;24.67;29.99;100942.81;5087074;28;20033;-28
2022/10/07 10:59:21;;;;;;;4.13;1.75;;;;;;;24.54;30.06;100929.88;5086902;28;20036;-29
2022/10/07 11:02:06;;;;;;;4.20;2.00;;;;;;;24.67;29.51;100921.00;5086460;28;20031;-32
2022/10/07 11:04:48;;;;;;;4.70;1.90;;;;;;;25.15;30.21;100926.34;5087010;28;20035;-30
2022/10/07 11:07:20;;;;;;;4.45;1.83;;;;;;;25.47;30.14;100919.31;5069086;28;20480;-28
2022/10/07 11:09:56;;;;;;;4.55;2.20;;;;;;;25.33;29.16;100923.91;5086617;28;20036;-28
2022/10/07 11:12:28;;;;;;;5.55;2.10;;;;;;;25.34;28.28;100920.06;5102641;28;20039;-27
2022/10/07 11:15:01;;;;;;;3.58;1.75;;;;;;;25.37;30.56;100917.53;5083349;28;20099;-28
2022/10/07 11:17:30;;;;;;;5.10;2.50;;;;;;;25.19;28.71;100908.25;5065092;28;20028;-30
2022/10/07 11:20:15;;;;;;;2.95;1.40;;;;;;;25.00;28.04;100904.72;5066359;28;20036;-28
2022/10/07 11:22:49;;;;;;;4.70;2.45;;;;;;;24.94;29.04;100908.63;5066524;28;20832;-32
2022/10/07 11:25:29;;;;;;;3.55;1.70;;;;;;;25.28;29.45;100904.88;5065061;28;20544;-29
2022/10/07 11:28:06;;;;;;;5.43;2.00;;;;;;;25.18;29.45;100879.31;5066616;28;20074;-27
2022/10/07 11:30:42;;;;;;;2.92;1.75;;;;;;;25.40;28.52;100906.03;5066326;28;20761;-30
2022/10/07 11:33:18;;;;;;;5.05;2.05;;;;;;;25.62;27.69;100894.47;5066844;28;20117;-28
2022/10/07 11:35:50;;;;;;;4.13;1.80;;;;;;;25.66;27.76;100875.53;5066790;28;20101;-29
2022/10/07 11:38:28;;;;;;;6.72;2.08;;;;;;;25.45;27.94;100843.13;5084954;28;20062;-30
2022/10/07 11:41:06;;;;;;;;;;;;;;;26.41;27.23;100870.84;5087189;28;20051;-28
2022/10/07 11:43:39;;;;;;;5.18;2.05;;;;;;;26.86;26.06;100871.78;5086323;28;19912;-28
2022/10/07 11:46:20;;;;;;;8.73;2.47;;;;;;;26.06;26.64;100854.06;5086880;28;20161;-30
2022/10/07 11:48:53;;;;;;;2.80;1.73;;;;;;;26.04;27.63;100872.69;5086495;28;20063;-28
2022/10/07 11:51:27;;;;;;;3.25;1.60;;;;;;;26.57;27.76;100841.25;5086575;28;20081;-27